createdAt,value
2019-05-01T00:01:35.079Z,10.60
2019-05-01T00:04:23.242Z,10.60
2019-05-01T00:06:57.030Z,10.70
2019-05-01T00:09:28.097Z,10.60
2019-05-01T00:11:59.367Z,10.50
2019-05-01T00:14:31.580Z,10.50
2019-05-01T00:17:02.090Z,10.50
2019-05-01T00:19:33.476Z,10.50
2019-05-01T00:22:03.883Z,10.40
2019-05-01T00:24:34.231Z,10.50
2019-05-01T00:27:04.628Z,10.50
2019-05-01T00:29:35.251Z,10.40
2019-05-01T00:32:05.624Z,10.50
2019-05-01T00:34:35.935Z,10.50
2019-05-01T00:37:07.393Z,10.60
2019-05-01T00:39:37.734Z,10.60
2019-05-01T00:42:09.059Z,10.50
2019-05-01T00:44:39.427Z,10.60
2019-05-01T00:47:09.900Z,10.60
2019-05-01T00:49:41.316Z,10.50
2019-05-01T00:52:11.611Z,10.50
2019-05-01T00:54:43.539Z,10.50
2019-05-01T00:57:32.967Z,10.50
2019-05-01T01:00:26.492Z,10.50
2019-05-01T01:02:57.345Z,10.40
2019-05-01T01:05:27.820Z,10.50
2019-05-01T01:07:58.199Z,10.50
2019-05-01T01:10:28.499Z,10.40
2019-05-01T01:12:59.324Z,10.40
2019-05-01T01:15:29.716Z,10.40
2019-05-01T01:17:59.987Z,10.50
2019-05-01T01:20:30.387Z,10.40
2019-05-01T01:23:00.887Z,10.40
2019-05-01T01:25:31.803Z,10.40
2019-05-01T01:28:02.451Z,10.30
2019-05-01T01:30:32.878Z,10.30
2019-05-01T01:33:03.309Z,10.40
2019-05-01T01:35:33.575Z,10.40
2019-05-01T01:38:04.075Z,10.40
2019-05-01T01:40:35.689Z,10.30
2019-05-01T01:43:24.314Z,10.30
2019-05-01T01:45:55.839Z,10.40
2019-05-01T01:48:26.614Z,10.30
2019-05-01T01:50:57.430Z,10.20
2019-05-01T01:53:28.071Z,10.20
2019-05-01T01:55:58.664Z,10.20
2019-05-01T01:58:29.371Z,10.20
2019-05-01T02:01:15.843Z,10.20
2019-05-01T02:03:49.915Z,10.20
2019-05-01T02:06:20.423Z,10.20
2019-05-01T02:08:56.570Z,10.20
2019-05-01T02:11:23.225Z,10.10
2019-05-01T02:13:56.453Z,10.10
2019-05-01T02:16:27.257Z,10.10
2019-05-01T02:18:58.833Z,10.00
2019-05-01T02:21:29.271Z,10.00
2019-05-01T02:23:59.639Z,10.00
2019-05-01T02:26:34.419Z,10.10
2019-05-01T02:29:12.860Z,10.10
2019-05-01T02:31:46.481Z,10.10
2019-05-01T02:34:19.047Z,10.10
2019-05-01T02:36:51.997Z,10.10
2019-05-01T02:39:24.520Z,10.10
2019-05-01T02:41:56.952Z,10.00
2019-05-01T02:44:36.463Z,10.10
2019-05-01T02:47:09.938Z,10.00
2019-05-01T02:50:03.240Z,10.10
2019-05-01T02:52:37.093Z,10.00
2019-05-01T02:55:19.024Z,9.90
2019-05-01T02:57:49.666Z,9.90
2019-05-01T03:00:20.672Z,9.80
2019-05-01T03:02:51.099Z,9.80
2019-05-01T03:05:21.477Z,9.80
2019-05-01T03:07:52.761Z,9.80
2019-05-01T03:10:24.863Z,9.80
2019-05-01T03:12:56.295Z,9.90
2019-05-01T03:15:30.447Z,9.90
2019-05-01T03:18:20.744Z,9.90
2019-05-01T03:21:09.883Z,9.90
2019-05-01T03:23:54.551Z,9.90
2019-05-01T03:26:25.280Z,9.90
2019-05-01T03:28:56.518Z,9.90
2019-05-01T03:31:27.127Z,9.90
2019-05-01T03:33:59.097Z,9.90
2019-05-01T03:36:29.473Z,9.90
2019-05-01T03:39:00.286Z,9.90
2019-05-01T03:41:30.799Z,9.90
2019-05-01T03:44:01.353Z,9.90
2019-05-01T03:46:32.052Z,9.90
2019-05-01T03:49:02.605Z,9.90
2019-05-01T03:51:33.129Z,9.80
2019-05-01T03:54:03.611Z,9.80
2019-05-01T03:56:34.204Z,9.80
2019-05-01T03:59:05.321Z,9.90
2019-05-01T04:01:48.401Z,9.80
2019-05-01T04:04:21.401Z,9.80
2019-05-01T04:06:52.082Z,9.70
2019-05-01T04:09:22.899Z,9.80
2019-05-01T04:11:53.276Z,9.80
2019-05-01T04:14:24.060Z,9.80
2019-05-01T04:17:01.753Z,9.90
2019-05-01T04:19:32.178Z,9.90
2019-05-01T04:22:09.139Z,9.90
2019-05-01T04:24:40.303Z,9.80
2019-05-01T04:27:16.879Z,9.80
2019-05-01T04:29:57.273Z,9.80
2019-05-01T04:32:31.020Z,9.70
2019-05-01T04:35:18.919Z,9.70
2019-05-01T04:37:49.795Z,9.80
2019-05-01T04:40:21.052Z,9.80
2019-05-01T04:42:51.903Z,9.80
2019-05-01T04:45:23.059Z,9.80
2019-05-01T04:47:54.121Z,9.80
2019-05-01T04:50:24.638Z,9.90
2019-05-01T04:52:55.238Z,9.70
2019-05-01T04:55:25.690Z,9.70
2019-05-01T04:57:56.316Z,9.70
2019-05-01T05:00:26.908Z,9.70
2019-05-01T05:03:05.501Z,9.70
2019-05-01T05:05:36.406Z,9.70
2019-05-01T05:08:06.923Z,9.80
2019-05-01T05:10:37.798Z,9.80
2019-05-01T05:13:22.667Z,9.80
2019-05-01T05:16:02.087Z,9.80
2019-05-01T05:18:33.428Z,9.80
2019-05-01T05:21:04.779Z,9.80
2019-05-01T05:23:35.351Z,9.80
2019-05-01T05:26:06.528Z,9.80
2019-05-01T05:28:38.420Z,9.80
2019-05-01T05:31:11.084Z,9.70
2019-05-01T05:33:44.633Z,9.80
2019-05-01T05:36:16.619Z,9.80
2019-05-01T05:38:55.710Z,9.90
2019-05-01T05:41:28.971Z,9.80
2019-05-01T05:43:59.804Z,9.80
2019-05-01T05:46:30.448Z,10.00
2019-05-01T05:49:00.839Z,9.90
2019-05-01T05:51:55.178Z,9.90
2019-05-01T05:54:52.328Z,9.80
2019-05-01T05:57:31.288Z,9.80
2019-05-01T06:00:28.454Z,9.80
2019-05-01T06:03:10.145Z,9.90
2019-05-01T06:05:50.979Z,10.00
2019-05-01T06:08:26.921Z,10.00
2019-05-01T06:11:24.133Z,10.00
2019-05-01T06:14:32.523Z,10.00
2019-05-01T06:17:14.908Z,10.00
2019-05-01T06:19:55.641Z,10.00
2019-05-01T06:22:56.508Z,10.00
2019-05-01T06:25:32.428Z,10.00
2019-05-01T06:28:03.003Z,10.10
2019-05-01T06:30:34.715Z,10.10
2019-05-01T06:33:09.409Z,10.10
2019-05-01T06:35:39.468Z,10.10
2019-05-01T06:38:15.449Z,10.10
2019-05-01T06:40:53.105Z,10.20
2019-05-01T06:43:32.746Z,10.20
2019-05-01T06:46:38.015Z,10.30
2019-05-01T06:49:19.024Z,10.20
2019-05-01T06:51:55.090Z,10.10
2019-05-01T06:54:27.537Z,10.10
2019-05-01T06:57:01.021Z,10.20
2019-05-01T06:59:33.394Z,10.10
2019-05-01T07:02:05.267Z,10.20
2019-05-01T07:04:38.118Z,10.30
2019-05-01T07:07:24.011Z,10.30
2019-05-01T07:09:49.209Z,10.30
2019-05-01T07:12:23.953Z,10.30
2019-05-01T07:14:53.407Z,10.30
2019-05-01T07:17:24.098Z,10.30
2019-05-01T07:20:18.205Z,10.40
2019-05-01T07:22:51.484Z,10.40
2019-05-01T07:25:22.635Z,10.50
2019-05-01T07:27:53.905Z,10.50
2019-05-01T07:30:44.739Z,10.50
2019-05-01T07:33:16.755Z,10.60
2019-05-01T07:35:47.876Z,10.60
2019-05-01T07:38:18.446Z,10.60
2019-05-01T07:40:49.184Z,10.60
2019-05-01T07:43:38.082Z,10.60
2019-05-01T07:46:24.921Z,10.70
2019-05-01T07:48:56.503Z,10.70
2019-05-01T07:51:27.892Z,10.70
2019-05-01T07:54:03.671Z,10.70
2019-05-01T07:56:32.240Z,10.70
2019-05-01T07:59:02.615Z,10.70
2019-05-01T08:01:54.511Z,10.70
2019-05-01T08:04:35.818Z,10.60
2019-05-01T08:06:57.116Z,10.70
2019-05-01T08:09:27.333Z,10.80
2019-05-01T08:11:57.810Z,10.80
2019-05-01T08:14:28.255Z,10.90
2019-05-01T08:16:58.615Z,10.90
2019-05-01T08:19:39.192Z,10.90
2019-05-01T08:22:12.513Z,10.80
2019-05-01T08:24:42.775Z,10.80
2019-05-01T08:27:35.363Z,10.70
2019-05-01T08:30:24.265Z,10.80
2019-05-01T08:33:19.976Z,11.00
2019-05-01T08:35:51.404Z,11.20
2019-05-01T08:38:21.821Z,11.10
2019-05-01T08:40:55.435Z,11.30
2019-05-01T08:43:24.396Z,11.40
2019-05-01T08:46:24.781Z,11.30
2019-05-01T08:49:14.575Z,11.30
2019-05-01T08:51:46.775Z,11.30
2019-05-01T08:54:18.101Z,11.30
2019-05-01T08:56:53.037Z,11.30
2019-05-01T08:59:25.814Z,11.50
2019-05-01T09:02:09.032Z,11.60
2019-05-01T09:04:35.871Z,11.40
2019-05-01T09:07:09.160Z,11.60
2019-05-01T09:09:45.547Z,11.70
2019-05-01T09:12:17.867Z,11.70
2019-05-01T09:14:51.085Z,11.60
2019-05-01T09:17:21.507Z,11.60
2019-05-01T09:19:53.155Z,11.80
2019-05-01T09:22:26.891Z,11.90
2019-05-01T09:25:01.900Z,12.00
2019-05-01T09:27:45.455Z,12.10
2019-05-01T09:30:35.720Z,12.20
2019-05-01T09:33:08.401Z,12.10
2019-05-01T09:35:45.404Z,12.20
2019-05-01T09:38:14.959Z,12.10
2019-05-01T09:40:47.818Z,12.10
2019-05-01T09:43:18.913Z,12.20
2019-05-01T09:45:51.918Z,12.20
2019-05-01T09:48:24.610Z,12.30
2019-05-01T09:51:14.752Z,12.30
2019-05-01T09:53:53.267Z,12.40
2019-05-01T09:56:25.040Z,12.40
2019-05-01T09:58:57.382Z,12.40
2019-05-01T10:01:32.009Z,12.30
2019-05-01T10:04:05.519Z,12.40
2019-05-01T10:06:35.225Z,12.60
2019-05-01T10:09:11.973Z,12.60
2019-05-01T10:11:42.115Z,12.70
2019-05-01T10:14:13.518Z,12.70
2019-05-01T10:16:44.868Z,12.80
2019-05-01T10:19:15.300Z,12.80
2019-05-01T10:21:47.025Z,12.80
2019-05-01T10:24:25.438Z,12.80
2019-05-01T10:27:04.211Z,12.90
2019-05-01T10:30:01.514Z,13.00
2019-05-01T10:32:52.797Z,13.00
2019-05-01T10:35:44.327Z,13.10
2019-05-01T10:38:18.099Z,13.20
2019-05-01T10:40:52.398Z,13.20
2019-05-01T10:43:24.978Z,13.30
2019-05-01T10:46:02.245Z,13.20
2019-05-01T10:48:32.735Z,13.30
2019-05-01T10:51:04.320Z,13.40
2019-05-01T10:53:36.711Z,13.50
2019-05-01T10:56:08.099Z,13.60
2019-05-01T10:58:38.563Z,13.60
2019-05-01T11:01:19.464Z,13.70
2019-05-01T11:03:51.992Z,13.60
2019-05-01T11:06:23.140Z,13.60
2019-05-01T11:08:53.594Z,13.70
2019-05-01T11:11:26.706Z,13.80
2019-05-01T11:13:58.964Z,14.00
2019-05-01T11:16:29.808Z,14.00
2019-05-01T11:19:00.183Z,14.00
2019-05-01T11:21:31.246Z,14.00
2019-05-01T11:24:04.618Z,14.00
2019-05-01T11:26:38.587Z,14.10
2019-05-01T11:29:13.051Z,14.20
2019-05-01T11:31:57.595Z,14.20
2019-05-01T11:34:39.740Z,14.30
2019-05-01T11:37:22.681Z,14.40
2019-05-01T11:40:08.162Z,14.40
2019-05-01T11:42:40.363Z,14.50
2019-05-01T11:45:10.956Z,14.70
2019-05-01T11:47:43.108Z,14.70
2019-05-01T11:50:13.971Z,14.70
2019-05-01T11:52:44.739Z,14.90
2019-05-01T11:55:16.326Z,14.90
2019-05-01T11:57:48.752Z,14.90
2019-05-01T12:00:20.920Z,14.90
2019-05-01T12:02:55.077Z,14.90
2019-05-01T12:05:26.882Z,15.00
2019-05-01T12:07:58.272Z,15.00
2019-05-01T12:10:30.760Z,15.10
2019-05-01T12:13:02.046Z,15.10
2019-05-01T12:15:32.748Z,15.00
2019-05-01T12:18:05.973Z,15.00
2019-05-01T12:20:37.277Z,14.90
2019-05-01T12:23:07.701Z,14.90
2019-05-01T12:25:39.640Z,14.90
2019-05-01T12:28:12.046Z,14.90
2019-05-01T12:30:45.507Z,14.90
2019-05-01T12:33:20.044Z,15.00
2019-05-01T12:35:54.148Z,15.10
2019-05-01T12:38:25.789Z,15.10
2019-05-01T12:41:19.713Z,15.30
2019-05-01T12:43:52.016Z,15.40
2019-05-01T12:46:45.127Z,15.40
2019-05-01T12:49:16.803Z,15.40
2019-05-01T12:51:51.014Z,15.40
2019-05-01T12:54:40.521Z,15.40
2019-05-01T12:57:13.069Z,15.40
2019-05-01T12:59:45.065Z,15.60
2019-05-01T13:02:18.583Z,15.60
2019-05-01T13:04:50.163Z,15.50
2019-05-01T13:07:20.756Z,15.30
2019-05-01T13:09:51.243Z,15.50
2019-05-01T13:12:21.615Z,15.50
2019-05-01T13:14:52.073Z,15.60
2019-05-01T13:17:23.223Z,15.50
2019-05-01T13:19:53.780Z,15.40
2019-05-01T13:22:24.180Z,15.50
2019-05-01T13:24:54.572Z,15.60
2019-05-01T13:27:41.492Z,15.70
2019-05-01T13:30:31.672Z,15.80
2019-05-01T13:33:03.236Z,15.80
2019-05-01T13:35:34.430Z,15.90
2019-05-01T13:38:04.988Z,15.90
2019-05-01T13:40:35.351Z,15.90
2019-05-01T13:43:05.813Z,16.10
2019-05-01T13:45:37.117Z,16.20
2019-05-01T13:48:07.605Z,16.10
2019-05-01T13:50:39.612Z,16.20
2019-05-01T13:53:10.135Z,16.50
2019-05-01T13:55:40.772Z,16.60
2019-05-01T13:58:11.256Z,16.50
2019-05-01T14:00:41.728Z,16.50
2019-05-01T14:03:13.561Z,16.60
2019-05-01T14:05:44.120Z,16.60
2019-05-01T14:08:14.518Z,16.70
2019-05-01T14:10:45.008Z,16.90
2019-05-01T14:13:15.374Z,17.10
2019-05-01T14:15:45.819Z,17.10
2019-05-01T14:18:16.406Z,17.30
2019-05-01T14:21:05.828Z,17.50
2019-05-01T14:23:54.476Z,17.20
2019-05-01T14:26:25.000Z,17.10
2019-05-01T14:28:55.371Z,16.70
2019-05-01T14:31:25.847Z,16.60
2019-05-01T14:33:56.301Z,16.60
2019-05-01T14:36:27.691Z,16.50
2019-05-01T14:38:58.099Z,16.40
2019-05-01T14:41:28.443Z,16.20
2019-05-01T14:43:58.783Z,16.40
2019-05-01T14:46:29.238Z,16.60
2019-05-01T14:48:59.903Z,16.70
2019-05-01T14:51:30.334Z,16.40
2019-05-01T14:54:00.987Z,16.70
2019-05-01T14:56:31.395Z,16.90
2019-05-01T14:59:01.778Z,16.50
2019-05-01T15:01:32.283Z,16.40
2019-05-01T15:04:03.381Z,16.40
2019-05-01T15:06:33.999Z,16.30
2019-05-01T15:09:06.958Z,16.10
2019-05-01T15:11:38.636Z,16.20
2019-05-01T15:14:31.876Z,16.10
2019-05-01T15:17:18.679Z,16.30
2019-05-01T15:19:54.024Z,16.40
2019-05-01T15:22:24.460Z,16.60
2019-05-01T15:24:54.895Z,16.40
2019-05-01T15:27:25.380Z,16.30
2019-05-01T15:29:55.652Z,16.30
2019-05-01T15:32:26.177Z,16.30
2019-05-01T15:34:56.568Z,16.20
2019-05-01T15:37:27.889Z,16.00
2019-05-01T15:40:05.660Z,16.00
2019-05-01T15:42:40.853Z,16.00
2019-05-01T15:45:13.007Z,15.90
2019-05-01T15:47:43.341Z,15.70
2019-05-01T15:50:14.314Z,15.60
2019-05-01T15:52:45.059Z,15.70
2019-05-01T15:55:15.632Z,15.80
2019-05-01T15:57:46.042Z,15.70
2019-05-01T16:00:19.013Z,15.60
2019-05-01T16:02:49.779Z,15.50
2019-05-01T16:05:20.247Z,15.50
2019-05-01T16:07:50.747Z,15.30
2019-05-01T16:10:25.732Z,15.30
2019-05-01T16:13:00.570Z,15.20
2019-05-01T16:15:32.414Z,14.90
2019-05-01T16:18:04.496Z,15.00
2019-05-01T16:20:35.059Z,14.90
2019-05-01T16:23:05.500Z,14.90
2019-05-01T16:25:36.011Z,14.80
2019-05-01T16:28:06.401Z,14.90
2019-05-01T16:30:36.756Z,14.90
2019-05-01T16:33:07.144Z,14.90
2019-05-01T16:35:37.672Z,15.10
2019-05-01T16:38:22.650Z,15.10
2019-05-01T16:41:03.106Z,14.90
2019-05-01T16:43:33.895Z,14.80
2019-05-01T16:46:04.339Z,14.70
2019-05-01T16:48:35.385Z,14.70
2019-05-01T16:51:05.915Z,14.70
2019-05-01T16:53:36.979Z,14.60
2019-05-01T16:56:07.737Z,14.60
2019-05-01T16:58:38.809Z,14.50
2019-05-01T17:01:14.320Z,14.50
2019-05-01T17:04:07.101Z,14.50
2019-05-01T17:06:54.532Z,14.60
2019-05-01T17:09:42.965Z,14.40
2019-05-01T17:12:14.495Z,14.20
2019-05-01T17:14:45.233Z,14.10
2019-05-01T17:17:18.703Z,14.20
2019-05-01T17:19:49.984Z,14.10
2019-05-01T17:22:21.435Z,14.10
2019-05-01T17:24:51.871Z,14.20
2019-05-01T17:27:22.195Z,14.20
2019-05-01T17:29:52.691Z,14.10
2019-05-01T17:32:23.104Z,13.90
2019-05-01T17:34:53.603Z,13.80
2019-05-01T17:37:24.095Z,13.80
2019-05-01T17:39:55.197Z,13.80
2019-05-01T17:42:26.577Z,13.70
2019-05-01T17:44:59.611Z,13.70
2019-05-01T17:47:29.028Z,13.70
2019-05-01T17:49:59.480Z,13.80
2019-05-01T17:52:29.823Z,13.70
2019-05-01T17:55:01.427Z,13.70
2019-05-01T17:57:33.780Z,13.50
2019-05-01T18:00:21.009Z,13.40
2019-05-01T18:03:01.191Z,13.30
2019-05-01T18:05:41.270Z,13.40
2019-05-01T18:08:11.735Z,13.20
2019-05-01T18:10:42.168Z,13.10
2019-05-01T18:13:12.454Z,13.10
2019-05-01T18:15:42.887Z,13.00
2019-05-01T18:18:15.179Z,13.00
2019-05-01T18:20:46.183Z,13.00
2019-05-01T18:23:49.516Z,12.90
2019-05-01T18:26:48.227Z,12.90
2019-05-01T18:29:35.525Z,12.70
2019-05-01T18:32:09.846Z,12.70
2019-05-01T18:34:40.066Z,12.60
2019-05-01T18:37:17.692Z,12.40
2019-05-01T18:39:48.244Z,12.40
2019-05-01T18:42:18.701Z,12.40
2019-05-01T18:44:49.625Z,12.30
2019-05-01T18:47:20.369Z,12.20
2019-05-01T18:49:50.728Z,12.20
2019-05-01T18:52:21.098Z,12.10
2019-05-01T18:54:51.553Z,12.10
2019-05-01T18:57:21.925Z,12.10
2019-05-01T18:59:52.963Z,12.00
2019-05-01T19:02:24.991Z,11.90
2019-05-01T19:04:56.583Z,12.00
2019-05-01T19:07:27.120Z,11.90
2019-05-01T19:09:57.573Z,11.80
2019-05-01T19:12:31.035Z,11.90
2019-05-01T19:15:04.899Z,11.80
2019-05-01T19:17:32.392Z,11.80
2019-05-01T19:20:02.962Z,11.70
2019-05-01T19:22:33.649Z,11.60
2019-05-01T19:25:04.297Z,11.50
2019-05-01T19:27:34.835Z,11.50
2019-05-01T19:30:09.763Z,11.40
2019-05-01T19:32:38.091Z,11.40
2019-05-01T19:35:08.684Z,11.30
2019-05-01T19:37:39.327Z,11.30
2019-05-01T19:40:11.975Z,11.20
2019-05-01T19:42:42.532Z,11.20
2019-05-01T19:45:13.739Z,11.10
2019-05-01T19:47:44.197Z,11.10
2019-05-01T19:50:15.761Z,11.10
2019-05-01T19:52:46.183Z,11.10
2019-05-01T19:55:17.729Z,11.00
2019-05-01T19:57:48.127Z,11.00
2019-05-01T20:00:38.436Z,11.00
2019-05-01T20:03:09.032Z,10.90
2019-05-01T20:05:41.746Z,10.90
2019-05-01T20:08:13.061Z,10.90
2019-05-01T20:10:43.427Z,10.90
2019-05-01T20:13:13.957Z,10.80
2019-05-01T20:15:44.475Z,10.80
2019-05-01T20:18:16.073Z,10.70
2019-05-01T20:20:46.451Z,10.70
2019-05-01T20:23:16.983Z,10.70
2019-05-01T20:25:51.042Z,10.60
2019-05-01T20:28:22.461Z,10.70
2019-05-01T20:30:52.953Z,10.60
2019-05-01T20:33:23.563Z,10.60
2019-05-01T20:35:54.115Z,10.50
2019-05-01T20:38:24.581Z,10.40
2019-05-01T20:41:01.266Z,10.40
2019-05-01T20:43:33.560Z,10.30
2019-05-01T20:46:07.034Z,10.30
2019-05-01T20:48:37.759Z,10.30
2019-05-01T20:51:08.189Z,10.20
2019-05-01T20:53:38.643Z,10.30
2019-05-01T20:56:21.546Z,10.20
2019-05-01T20:58:51.908Z,10.20
2019-05-01T21:01:24.356Z,10.20
2019-05-01T21:04:03.116Z,10.20
2019-05-01T21:06:39.094Z,10.20
2019-05-01T21:09:21.827Z,10.10
2019-05-01T21:12:04.959Z,10.10
2019-05-01T21:14:27.636Z,10.10
2019-05-01T21:16:57.963Z,10.10
2019-05-01T21:19:30.518Z,10.00
2019-05-01T21:22:01.497Z,10.00
2019-05-01T21:24:33.974Z,9.90
2019-05-01T21:27:04.323Z,9.90
2019-05-01T21:29:34.716Z,9.90
2019-05-01T21:32:05.114Z,9.90
2019-05-01T21:34:35.667Z,9.80
2019-05-01T21:37:06.019Z,9.80
2019-05-01T21:39:36.588Z,9.70
2019-05-01T21:42:11.711Z,9.70
2019-05-01T21:44:43.478Z,9.70
2019-05-01T21:47:14.679Z,9.70
2019-05-01T21:49:45.807Z,9.60
2019-05-01T21:52:17.973Z,9.60
2019-05-01T21:54:50.168Z,9.60
2019-05-01T21:57:24.407Z,9.60
2019-05-01T21:59:55.277Z,9.50
2019-05-01T22:02:26.034Z,9.50
2019-05-01T22:04:56.349Z,9.50
2019-05-01T22:07:27.922Z,9.40
2019-05-01T22:09:58.902Z,9.40
2019-05-01T22:12:29.424Z,9.40
2019-05-01T22:15:06.259Z,9.30
2019-05-01T22:18:02.207Z,9.30
2019-05-01T22:20:37.876Z,9.20
2019-05-01T22:23:10.697Z,9.10
2019-05-01T22:25:50.151Z,9.10
2019-05-01T22:28:39.936Z,9.10
2019-05-01T22:31:21.844Z,9.00
2019-05-01T22:33:56.393Z,9.00
2019-05-01T22:36:27.068Z,8.90
2019-05-01T22:38:57.474Z,8.90
2019-05-01T22:41:29.461Z,8.90
2019-05-01T22:43:59.799Z,8.90
2019-05-01T22:46:33.715Z,8.90
2019-05-01T22:49:03.220Z,8.90
2019-05-01T22:51:33.706Z,8.90
2019-05-01T22:54:04.186Z,8.90
2019-05-01T22:56:34.552Z,8.90
2019-05-01T22:59:06.036Z,8.80
2019-05-01T23:01:36.640Z,8.80
2019-05-01T23:04:12.011Z,8.80
2019-05-01T23:06:41.798Z,8.80
2019-05-01T23:09:13.615Z,8.80
2019-05-01T23:11:45.632Z,8.70
2019-05-01T23:14:17.110Z,8.70
2019-05-01T23:17:03.306Z,8.70
2019-05-01T23:19:33.515Z,8.60
2019-05-01T23:22:04.937Z,8.60
2019-05-01T23:24:35.573Z,8.60
2019-05-01T23:27:06.079Z,8.60
2019-05-01T23:29:37.164Z,8.60
2019-05-01T23:32:07.564Z,8.60
2019-05-01T23:34:37.948Z,8.50
2019-05-01T23:37:08.287Z,8.40
2019-05-01T23:39:42.151Z,8.40
2019-05-01T23:42:12.611Z,8.40
2019-05-01T23:44:44.220Z,8.40
2019-05-01T23:47:14.701Z,8.40
2019-05-01T23:49:52.491Z,8.40
2019-05-01T23:52:20.989Z,8.40
2019-05-01T23:54:51.506Z,8.40
2019-05-01T23:57:21.895Z,8.40
2019-05-01T23:59:52.543Z,8.40
